Time;durP1;ratioP1;P1;durP2;ratioP2;P2;SDS_P1;SDS_P2;PMS_P1;PMS_P2;Temp;Humidity;BMP_temperature;BMP_pressure;BME280_temperature;BME280_humidity;BME280_pressure;Samples;Min_cycle;Max_cycle;Signal;HPM_P1;HPM_P2
2021/06/28 00:01:30;;;;;;;9.45;7.45;;;19.50;88.20;;;;;;5078625;28;20020;-80
2021/06/28 00:03:56;;;;;;;9.23;8.07;;;19.50;88.20;;;;;;5077859;28;20098;-80
2021/06/28 00:06:22;;;;;;;9.48;7.25;;;19.40;88.10;;;;;;5071684;28;20055;-80
2021/06/28 00:08:48;;;;;;;8.18;7.07;;;19.40;88.10;;;;;;5055023;28;20036;-79
2021/06/28 00:11:14;;;;;;;12.82;7.50;;;19.40;88.70;;;;;;5071484;28;20024;-80
2021/06/28 00:13:42;;;;;;;8.15;7.28;;;19.40;88.00;;;;;;5051723;28;20032;-80
2021/06/28 00:16:08;;;;;;;11.02;7.95;;;19.30;88.00;;;;;;5052938;28;20029;-79
2021/06/28 00:18:35;;;;;;;8.40;7.18;;;19.30;88.10;;;;;;5064007;28;20029;-79
2021/06/28 00:21:01;;;;;;;11.27;7.38;;;19.30;88.20;;;;;;5072801;28;20050;-79
2021/06/28 00:23:27;;;;;;;9.40;8.40;;;19.30;88.30;;;;;;5054673;28;20078;-79
2021/06/28 00:25:53;;;;;;;9.48;8.07;;;19.30;88.30;;;;;;5072999;28;20107;-80
2021/06/28 00:28:21;;;;;;;10.25;7.82;;;19.30;88.40;;;;;;5071863;28;20032;-79
2021/06/28 00:30:48;;;;;;;9.20;7.82;;;19.30;88.30;;;;;;5071897;28;20381;-79
2021/06/28 00:33:19;;;;;;;9.30;8.30;;;19.20;88.30;;;;;;5071679;28;20027;-79
2021/06/28 00:35:46;;;;;;;11.63;8.57;;;19.20;88.50;;;;;;5072027;28;20021;-79
2021/06/28 00:38:12;;;;;;;11.50;7.80;;;19.20;88.60;;;;;;5071781;28;20050;-79
2021/06/28 00:40:39;;;;;;;10.30;8.13;;;19.20;88.70;;;;;;5072915;28;20036;-79
2021/06/28 00:43:06;;;;;;;9.15;8.20;;;19.20;88.60;;;;;;5054737;28;20036;-79
2021/06/28 00:45:35;;;;;;;9.13;8.13;;;19.20;88.70;;;;;;5076274;28;20016;-79
2021/06/28 00:48:04;;;;;;;9.07;7.40;;;19.20;88.70;;;;;;5075174;28;20111;-79
2021/06/28 00:50:32;;;;;;;11.32;8.07;;;19.20;88.80;;;;;;5076658;28;20079;-79
2021/06/28 00:53:00;;;;;;;11.52;8.55;;;19.20;88.90;;;;;;5076546;28;20032;-79
2021/06/28 00:55:27;;;;;;;13.55;8.75;;;19.20;89.10;;;;;;5075142;28;20104;-79
2021/06/28 00:57:53;;;;;;;10.98;9.05;;;19.20;89.10;;;;;;5076382;28;20029;-79
2021/06/28 01:00:19;;;;;;;11.80;8.32;;;19.20;89.20;;;;;;5076240;28;20033;-79
2021/06/28 01:02:46;;;;;;;12.82;8.75;;;19.20;89.20;;;;;;5074879;28;20408;-79
2021/06/28 01:05:18;;;;;;;11.85;8.13;;;19.10;89.80;;;;;;5076051;28;20012;-79
2021/06/28 01:07:44;;;;;;;9.50;8.52;;;19.10;89.30;;;;;;5062617;28;20051;-79
2021/06/28 01:10:12;;;;;;;10.82;8.80;;;19.10;89.20;;;;;;5056254;28;20508;-79
2021/06/28 01:12:39;;;;;;;10.50;8.55;;;19.10;89.10;;;;;;5054955;28;20029;-79
2021/06/28 01:15:05;;;;;;;10.07;8.98;;;19.10;89.10;;;;;;5054689;28;20623;-79
2021/06/28 01:17:32;;;;;;;9.23;8.23;;;19.00;89.20;;;;;;5054835;28;20036;-79
2021/06/28 01:20:04;;;;;;;11.98;9.43;;;19.00;89.30;;;;;;5056156;28;20025;-79
2021/06/28 01:22:32;;;;;;;12.13;8.23;;;19.00;89.40;;;;;;5054572;28;20033;-79
2021/06/28 01:24:59;;;;;;;11.35;9.90;;;19.00;89.50;;;;;;5054671;28;20033;-79
2021/06/28 01:27:27;;;;;;;9.60;8.27;;;19.00;89.60;;;;;;5074156;28;20036;-79
2021/06/28 01:29:54;;;;;;;10.35;7.93;;;19.00;89.60;;;;;;5074500;28;20492;-79
2021/06/28 01:32:21;;;;;;;9.00;8.07;;;19.00;89.50;;;;;;5075800;28;20023;-79
2021/06/28 01:34:46;;;;;;;10.98;8.65;;;19.00;89.40;;;;;;5075770;28;20358;-79
2021/06/28 01:37:23;;;;;;;9.65;8.00;;;18.90;89.30;;;;;;5075999;28;20104;-79
2021/06/28 01:39:51;;;;;;;11.73;8.23;;;19.00;89.30;;;;;;5074250;28;20040;-79
2021/06/28 01:42:16;;;;;;;12.27;9.50;;;18.90;89.10;;;;;;5075369;28;20036;-79
2021/06/28 01:44:42;;;;;;;10.43;9.32;;;18.90;89.10;;;;;;5057675;28;20132;-79
2021/06/28 01:47:08;;;;;;;11.40;8.52;;;18.90;89.20;;;;;;5074223;28;20078;-79
2021/06/28 01:49:33;;;;;;;10.18;7.72;;;18.90;89.20;;;;;;5057447;28;20060;-79
2021/06/28 01:51:59;;;;;;;12.15;8.45;;;18.90;89.20;;;;;;5075049;28;20397;-79
2021/06/28 01:54:29;;;;;;;9.57;8.15;;;18.80;89.20;;;;;;5075287;28;20032;-79
2021/06/28 01:56:55;;;;;;;13.52;8.90;;;18.80;89.50;;;;;;5072962;28;20546;-79
2021/06/28 01:59:30;;;;;;;12.52;8.73;;;18.80;89.40;;;;;;5075127;28;20025;-79
2021/06/28 02:01:56;;;;;;;12.18;9.13;;;18.80;89.60;;;;;;5073939;28;20089;-79
2021/06/28 02:04:23;;;;;;;13.55;8.75;;;18.80;89.40;;;;;;5075122;28;20104;-79
2021/06/28 02:06:48;;;;;;;10.45;8.13;;;18.80;89.40;;;;;;5075032;28;20031;-79
2021/06/28 02:09:15;;;;;;;11.63;8.07;;;18.80;89.50;;;;;;5075104;28;20020;-79
2021/06/28 02:11:41;;;;;;;10.45;8.30;;;18.80;89.50;;;;;;5073679;28;20371;-79
2021/06/28 02:14:06;;;;;;;8.60;7.60;;;18.80;89.30;;;;;;5074850;28;20100;-79
2021/06/28 02:16:32;;;;;;;10.27;8.30;;;18.80;89.20;;;;;;5073662;28;20103;-79
2021/06/28 02:18:58;;;;;;;8.68;7.82;;;18.70;89.10;;;;;;5073636;28;20389;-79
2021/06/28 02:21:24;;;;;;;9.82;8.35;;;18.70;89.20;;;;;;5073695;28;20040;-79
2021/06/28 02:23:49;;;;;;;9.73;7.65;;;18.70;89.10;;;;;;5073401;28;20557;-79
2021/06/28 02:26:15;;;;;;;12.32;8.70;;;18.70;89.10;;;;;;5074549;28;20068;-79
2021/06/28 02:28:47;;;;;;;12.02;7.80;;;18.60;89.20;;;;;;5056693;28;20028;-79
2021/06/28 02:31:17;;;;;;;15.25;9.15;;;18.60;89.20;;;;;;5086152;28;20016;-79
2021/06/28 02:33:43;;;;;;;11.02;9.05;;;18.60;89.30;;;;;;5093608;28;20050;-79
2021/06/28 02:36:08;;;;;;;12.05;8.73;;;18.50;89.20;;;;;;5093846;28;20056;-79
2021/06/28 02:38:35;;;;;;;11.90;8.73;;;18.50;89.10;;;;;;5093544;28;20054;-79
2021/06/28 02:41:03;;;;;;;9.88;8.40;;;18.50;89.10;;;;;;5093373;28;20028;-79
2021/06/28 02:43:30;;;;;;;10.80;7.75;;;18.50;89.10;;;;;;5094798;28;20028;-79
2021/06/28 02:45:56;;;;;;;11.30;8.68;;;18.40;89.10;;;;;;5093443;28;20036;-79
2021/06/28 02:48:22;;;;;;;10.98;8.50;;;18.40;89.00;;;;;;5093347;28;20025;-79
2021/06/28 02:50:48;;;;;;;8.63;7.75;;;18.50;89.10;;;;;;5078082;28;20050;-79
2021/06/28 02:53:16;;;;;;;8.75;7.30;;;18.40;89.10;;;;;;5066016;28;20029;-79
2021/06/28 02:55:46;;;;;;;7.97;6.43;;;18.40;89.10;;;;;;5052801;28;20025;-79
2021/06/28 02:58:13;;;;;;;9.23;7.43;;;18.40;89.20;;;;;;5054526;28;20528;-79
2021/06/28 03:00:38;;;;;;;8.45;7.50;;;18.40;89.20;;;;;;5054144;28;20031;-79
2021/06/28 03:03:04;;;;;;;8.70;7.85;;;18.40;89.30;;;;;;5092414;28;20021;-79
2021/06/28 03:05:30;;;;;;;8.48;7.07;;;18.30;89.30;;;;;;5082246;28;20039;-79
2021/06/28 03:07:56;;;;;;;9.20;8.13;;;18.30;89.40;;;;;;5073986;28;20033;-79
2021/06/28 03:10:22;;;;;;;9.20;8.27;;;18.30;89.80;;;;;;5069978;28;20037;-79
2021/06/28 03:12:48;;;;;;;9.50;8.50;;;18.30;89.50;;;;;;5054458;28;20044;-79
2021/06/28 03:15:17;;;;;;;10.27;8.45;;;18.30;89.40;;;;;;5052845;28;20029;-79
2021/06/28 03:17:43;;;;;;;11.27;8.55;;;18.30;89.40;;;;;;5053967;28;20055;-79
2021/06/28 03:20:11;;;;;;;11.73;8.90;;;18.30;89.30;;;;;;5036173;28;20033;-79
2021/06/28 03:22:39;;;;;;;10.13;7.72;;;18.30;89.50;;;;;;5053901;28;20025;-79
2021/06/28 03:25:07;;;;;;;12.60;8.43;;;18.30;89.50;;;;;;5052465;28;20128;-79
2021/06/28 03:27:33;;;;;;;12.65;9.75;;;18.30;89.60;;;;;;5052117;28;20028;-79
2021/06/28 03:29:59;;;;;;;9.90;8.85;;;18.30;89.60;;;;;;5052516;28;20036;-79
2021/06/28 03:32:25;;;;;;;9.93;9.02;;;18.20;89.80;;;;;;5053566;28;20029;-79
2021/06/28 03:34:51;;;;;;;9.88;8.48;;;18.20;89.80;;;;;;5069440;28;20428;-79
2021/06/28 03:37:17;;;;;;;10.32;9.13;;;18.20;89.70;;;;;;5073618;28;20104;-79
2021/06/28 03:39:42;;;;;;;11.10;9.13;;;18.20;89.70;;;;;;5073692;28;20445;-79
2021/06/28 03:42:09;;;;;;;10.35;9.10;;;18.20;89.60;;;;;;5072512;28;20047;-78
2021/06/28 03:44:35;;;;;;;9.75;8.75;;;18.20;89.70;;;;;;5056188;28;20056;-78
2021/06/28 03:47:00;;;;;;;12.70;8.77;;;18.20;89.80;;;;;;5053301;28;20033;-78
2021/06/28 03:49:26;;;;;;;13.25;10.48;;;18.20;89.90;;;;;;5053336;28;20532;-78
2021/06/28 03:51:51;;;;;;;12.30;9.75;;;18.20;90.00;;;;;;5035341;28;20402;-78
2021/06/28 03:54:17;;;;;;;14.27;10.95;;;18.20;90.00;;;;;;5053366;28;20037;-78
2021/06/28 03:56:43;;;;;;;11.93;10.50;;;18.20;90.00;;;;;;5053402;28;20555;-78
2021/06/28 03:59:08;;;;;;;11.00;9.35;;;18.20;90.00;;;;;;5035368;28;20033;-78
2021/06/28 04:01:35;;;;;;;12.00;10.45;;;18.20;90.00;;;;;;5053259;28;20393;-78
2021/06/28 04:04:00;;;;;;;10.90;9.77;;;18.20;90.00;;;;;;5053286;28;20029;-78
2021/06/28 04:06:26;;;;;;;12.85;10.32;;;18.30;90.00;;;;;;5053306;28;20044;-78
2021/06/28 04:08:51;;;;;;;13.25;10.35;;;18.30;90.00;;;;;;5053507;28;20482;-79
2021/06/28 04:11:18;;;;;;;12.60;11.07;;;18.30;90.00;;;;;;5052034;28;20032;-78
2021/06/28 04:13:45;;;;;;;11.57;10.38;;;18.30;90.00;;;;;;5053391;28;20512;-78
2021/06/28 04:16:11;;;;;;;14.57;12.00;;;18.30;90.10;;;;;;5053291;28;20072;-78
2021/06/28 04:18:37;;;;;;;13.88;11.52;;;18.40;90.10;;;;;;5053170;28;20048;-78
2021/06/28 04:21:03;;;;;;;17.23;13.30;;;18.40;90.50;;;;;;5056795;28;20075;-78
2021/06/28 04:23:29;;;;;;;13.43;10.70;;;18.40;90.10;;;;;;5071421;28;20077;-78
2021/06/28 04:25:54;;;;;;;14.52;11.90;;;18.40;90.10;;;;;;5076696;28;20427;-78
2021/06/28 04:28:20;;;;;;;15.77;12.50;;;18.50;90.20;;;;;;5090752;28;20027;-78
2021/06/28 04:30:46;;;;;;;14.63;11.63;;;18.40;90.20;;;;;;5095866;28;20028;-78
2021/06/28 04:33:11;;;;;;;19.33;13.07;;;18.50;90.20;;;;;;5097200;28;20028;-78
2021/06/28 04:35:37;;;;;;;14.73;12.63;;;18.50;90.30;;;;;;5078983;28;20481;-78
2021/06/28 04:38:03;;;;;;;16.80;12.63;;;18.50;90.30;;;;;;5095854;28;20028;-78
2021/06/28 04:40:30;;;;;;;24.55;16.08;;;18.50;90.40;;;;;;5097329;28;20480;-78
2021/06/28 04:42:56;;;;;;;20.40;17.13;;;18.50;90.50;;;;;;5080610;28;20037;-78
2021/06/28 04:45:23;;;;;;;21.80;16.35;;;18.50;90.60;;;;;;5056647;28;20032;-78
2021/06/28 04:47:49;;;;;;;21.08;16.88;;;18.50;90.60;;;;;;5055243;28;20096;-78
2021/06/28 04:50:16;;;;;;;24.42;18.38;;;18.60;90.70;;;;;;5056307;28;20124;-78
2021/06/28 04:52:42;;;;;;;23.00;18.73;;;18.60;90.70;;;;;;5056434;28;20028;-78
2021/06/28 04:55:11;;;;;;;23.17;18.88;;;18.60;90.70;;;;;;5056178;28;20053;-78
2021/06/28 04:57:37;;;;;;;;;;;18.60;90.70;;;;;;5055513;28;20036;-78
2021/06/28 05:00:05;;;;;;;22.10;19.10;;;18.60;90.60;;;;;;5055038;28;20277;-78
2021/06/28 05:02:30;;;;;;;24.67;17.53;;;18.60;90.60;;;;;;5056371;28;20033;-78
2021/06/28 05:04:56;;;;;;;26.40;19.17;;;18.60;90.70;;;;;;5055300;28;20774;-79
2021/06/28 05:07:21;;;;;;;30.67;21.55;;;18.70;90.80;;;;;;5061495;28;20041;-78
2021/06/28 05:09:47;;;;;;;29.02;21.40;;;18.70;90.80;;;;;;5072829;28;20116;-78
2021/06/28 05:12:15;;;;;;;24.35;20.33;;;18.80;90.80;;;;;;5056222;28;20025;-78
2021/06/28 05:14:41;;;;;;;28.42;24.25;;;18.80;90.80;;;;;;5054984;28;20025;-78
2021/06/28 05:17:08;;;;;;;30.80;27.60;;;18.90;90.80;;;;;;5054900;28;20500;-78
2021/06/28 05:19:34;;;;;;;26.67;22.90;;;19.00;90.80;;;;;;5055837;28;20029;-78
2021/06/28 05:22:00;;;;;;;28.50;22.05;;;19.00;90.70;;;;;;5055036;28;20025;-78
2021/06/28 05:24:25;;;;;;;28.70;23.75;;;19.10;90.70;;;;;;5056105;28;20032;-78
2021/06/28 05:26:51;;;;;;;25.20;20.58;;;19.10;90.70;;;;;;5074361;28;20032;-78
2021/06/28 05:29:17;;;;;;;27.52;22.98;;;19.10;90.70;;;;;;5066087;28;20029;-78
2021/06/28 05:31:42;;;;;;;29.80;23.80;;;19.20;90.70;;;;;;5070617;28;20053;-79
2021/06/28 05:34:08;;;;;;;27.27;22.35;;;19.20;90.70;;;;;;5096489;28;20389;-79
2021/06/28 05:36:34;;;;;;;24.85;19.52;;;19.30;90.70;;;;;;5076766;28;20166;-79
2021/06/28 05:39:00;;;;;;;24.45;19.70;;;19.30;90.60;;;;;;5084790;28;20516;-79
2021/06/28 05:41:26;;;;;;;25.23;20.50;;;19.40;90.50;;;;;;5095996;28;20160;-79
2021/06/28 05:43:52;;;;;;;21.33;16.98;;;19.40;90.50;;;;;;5094930;28;20479;-79
2021/06/28 05:46:18;;;;;;;24.98;21.45;;;19.50;90.50;;;;;;5077481;28;20028;-79
2021/06/28 05:48:43;;;;;;;27.02;19.85;;;19.50;90.50;;;;;;5095641;28;20024;-79
2021/06/28 05:51:09;;;;;;;23.98;20.33;;;19.60;90.50;;;;;;5095336;28;20105;-79
2021/06/28 05:53:35;;;;;;;26.65;23.55;;;19.60;90.50;;;;;;5082291;28;20056;-79
2021/06/28 05:56:04;;;;;;;24.98;20.08;;;19.70;90.50;;;;;;5075577;28;20481;-79
2021/06/28 05:58:30;;;;;;;;;;;19.80;90.40;;;;;;5074475;28;20035;-79
2021/06/28 06:00:59;;;;;;;26.08;19.40;;;19.80;90.20;;;;;;5075268;28;19909;-79
2021/06/28 06:03:25;;;;;;;25.80;20.73;;;19.90;90.30;;;;;;5073733;28;20065;-79
2021/06/28 06:05:52;;;;;;;27.42;20.85;;;20.00;90.20;;;;;;5073826;28;20120;-79
2021/06/28 06:08:23;;;;;;;21.50;18.63;;;20.10;90.10;;;;;;5072910;28;20040;-79
2021/06/28 06:10:49;;;;;;;21.05;18.83;;;20.20;90.00;;;;;;5074405;28;20062;-79
2021/06/28 06:13:15;;;;;;;26.02;20.27;;;20.20;90.10;;;;;;5074218;28;20098;-79
2021/06/28 06:15:40;;;;;;;20.95;18.52;;;20.20;90.20;;;;;;5072877;28;20075;-79
2021/06/28 06:18:06;;;;;;;26.52;20.40;;;20.20;90.20;;;;;;5074126;28;20492;-79
2021/06/28 06:20:32;;;;;;;24.25;18.77;;;20.30;90.20;;;;;;5074295;28;20027;-79
2021/06/28 06:22:57;;;;;;;24.10;18.98;;;20.30;90.20;;;;;;5074127;28;20104;-79
2021/06/28 06:25:23;;;;;;;25.60;20.08;;;20.40;90.10;;;;;;5073335;28;20059;-80
2021/06/28 06:27:48;;;;;;;25.30;18.85;;;20.50;90.00;;;;;;5054091;28;20035;-80
2021/06/28 06:30:15;;;;;;;23.67;18.35;;;20.60;90.00;;;;;;5053114;28;20025;-80
2021/06/28 06:32:40;;;;;;;25.85;19.73;;;20.70;89.70;;;;;;5053950;28;20028;-79
2021/06/28 06:35:07;;;;;;;19.45;16.67;;;20.90;89.20;;;;;;5052882;28;20390;-80
2021/06/28 06:37:32;;;;;;;18.33;16.40;;;21.00;88.70;;;;;;5053919;28;20486;-80
2021/06/28 06:39:58;;;;;;;19.23;16.98;;;21.10;88.30;;;;;;5054093;28;20112;-80
2021/06/28 06:42:24;;;;;;;21.90;18.10;;;21.20;88.00;;;;;;5053630;28;20029;-80
2021/06/28 06:44:49;;;;;;;19.52;16.15;;;21.40;87.80;;;;;;5074700;28;20440;-80
2021/06/28 06:47:15;;;;;;;18.40;14.85;;;21.50;87.20;;;;;;5089482;28;20507;-80
2021/06/28 06:49:42;;;;;;;25.42;16.40;;;21.60;87.10;;;;;;5093802;28;20031;-80
2021/06/28 06:52:09;;;;;;;18.88;15.73;;;21.80;86.80;;;;;;5092996;28;20673;-80
2021/06/28 06:54:34;;;;;;;18.10;14.73;;;21.90;86.40;;;;;;5094163;28;20507;-79
2021/06/28 06:57:00;;;;;;;17.15;15.35;;;22.00;86.10;;;;;;5092905;28;20039;-79
2021/06/28 06:59:26;;;;;;;17.92;15.35;;;22.20;85.60;;;;;;5094243;28;20067;-79
2021/06/28 07:01:52;;;;;;;19.75;14.55;;;22.30;85.20;;;;;;5087879;28;20031;-80
2021/06/28 07:04:18;;;;;;;19.20;14.45;;;22.40;85.00;;;;;;5074117;28;20489;-80
2021/06/28 07:06:44;;;;;;;21.35;14.90;;;22.50;84.60;;;;;;5073713;28;20535;-80
2021/06/28 07:09:09;;;;;;;19.85;15.25;;;22.60;84.50;;;;;;5072928;28;20032;-80
2021/06/28 07:11:35;;;;;;;17.77;15.23;;;22.70;84.20;;;;;;5073648;28;20060;-80
2021/06/28 07:14:01;;;;;;;16.30;13.68;;;22.70;84.00;;;;;;5073731;28;20104;-80
2021/06/28 07:16:32;;;;;;;18.05;14.18;;;22.70;84.00;;;;;;5072398;28;20470;-80
2021/06/28 07:18:59;;;;;;;18.08;15.57;;;22.70;83.50;;;;;;5072566;28;20388;-80
2021/06/28 07:21:26;;;;;;;16.58;14.82;;;22.70;83.50;;;;;;5073494;28;20060;-80
2021/06/28 07:23:52;;;;;;;14.05;12.15;;;22.80;83.90;;;;;;5073730;28;20388;-80
2021/06/28 07:26:20;;;;;;;15.45;13.38;;;22.80;83.50;;;;;;5088145;28;20024;-80
2021/06/28 07:28:46;;;;;;;18.03;14.37;;;22.80;84.00;;;;;;5090629;28;20009;-80
2021/06/28 07:31:12;;;;;;;15.43;13.68;;;22.70;84.70;;;;;;5073283;28;20303;-80
2021/06/28 07:33:40;;;;;;;14.32;12.93;;;22.70;84.40;;;;;;5073288;28;20055;-80
2021/06/28 07:36:08;;;;;;;13.75;12.32;;;22.80;84.30;;;;;;5072035;28;20086;-80
2021/06/28 07:38:33;;;;;;;15.20;12.45;;;23.00;83.20;;;;;;5072220;28;20032;-80
2021/06/28 07:40:59;;;;;;;15.98;13.50;;;23.20;81.90;;;;;;5056840;28;20029;-80
2021/06/28 07:43:24;;;;;;;16.70;14.82;;;23.40;81.50;;;;;;5052081;28;20026;-80
2021/06/28 07:45:50;;;;;;;16.27;13.27;;;23.50;81.30;;;;;;5052966;28;20037;-80
2021/06/28 07:48:17;;;;;;;19.92;16.75;;;23.70;81.10;;;;;;5053320;28;20159;-81
2021/06/28 07:50:46;;;;;;;19.35;16.15;;;23.90;80.40;;;;;;5051951;28;20041;-80
2021/06/28 07:53:12;;;;;;;19.00;16.25;;;24.10;80.30;;;;;;5052879;28;20029;-80
2021/06/28 07:55:38;;;;;;;19.38;17.15;;;24.20;79.70;;;;;;5056821;28;20021;-79
2021/06/28 07:58:04;;;;;;;15.85;12.73;;;24.30;79.40;;;;;;5057196;28;20028;-80
2021/06/28 08:00:30;;;;;;;12.63;10.75;;;24.50;78.70;;;;;;5057472;28;20036;-80
2021/06/28 08:02:56;;;;;;;13.15;11.57;;;24.60;78.20;;;;;;5057152;28;20105;-80
2021/06/28 08:05:21;;;;;;;15.63;11.88;;;24.70;77.70;;;;;;5057325;28;20411;-80
2021/06/28 08:07:47;;;;;;;14.80;13.20;;;24.80;76.80;;;;;;5071819;28;20040;-80
2021/06/28 08:10:14;;;;;;;13.95;11.80;;;24.70;76.30;;;;;;5076408;28;20035;-80
2021/06/28 08:12:44;;;;;;;10.88;9.80;;;24.70;76.30;;;;;;5077689;28;20494;-80
2021/06/28 08:15:11;;;;;;;10.95;9.85;;;24.60;77.00;;;;;;5076046;28;20025;-80
2021/06/28 08:17:37;;;;;;;10.25;8.75;;;24.50;78.00;;;;;;5075792;28;20504;-80
2021/06/28 08:20:05;;;;;;;12.02;8.32;;;24.40;78.00;;;;;;5076971;28;20024;-80
2021/06/28 08:22:31;;;;;;;9.52;8.63;;;24.30;78.10;;;;;;5076991;28;20029;-80
2021/06/28 08:24:57;;;;;;;10.73;9.02;;;24.20;78.40;;;;;;5059140;28;20043;-81
2021/06/28 08:27:22;;;;;;;11.07;9.32;;;24.10;79.00;;;;;;5076832;28;20548;-80
2021/06/28 08:29:49;;;;;;;13.68;10.40;;;24.00;79.20;;;;;;5075480;28;20079;-80
2021/06/28 08:32:14;;;;;;;11.45;10.25;;;24.00;79.20;;;;;;5075381;28;20024;-81
2021/06/28 08:34:40;;;;;;;11.93;10.35;;;23.90;80.20;;;;;;5076643;28;20099;-80
2021/06/28 08:37:06;;;;;;;10.02;9.02;;;23.90;81.10;;;;;;5075377;28;20545;-80
2021/06/28 08:39:32;;;;;;;10.52;9.52;;;23.80;80.80;;;;;;5076739;28;20403;-80
2021/06/28 08:41:58;;;;;;;12.18;10.40;;;23.80;81.30;;;;;;5075539;28;20025;-80
2021/06/28 08:44:24;;;;;;;10.20;9.13;;;23.80;81.50;;;;;;5075443;28;20024;-80
2021/06/28 08:46:50;;;;;;;9.88;8.88;;;23.80;81.80;;;;;;5075371;28;20037;-80
2021/06/28 08:49:15;;;;;;;9.60;8.60;;;23.80;82.10;;;;;;5076400;28;20024;-80
2021/06/28 08:51:44;;;;;;;11.48;10.20;;;23.80;82.00;;;;;;5075119;28;20051;-80
2021/06/28 08:54:11;;;;;;;12.93;10.07;;;23.80;82.30;;;;;;5076361;28;20477;-81
2021/06/28 08:56:42;;;;;;;13.13;9.43;;;23.80;82.60;;;;;;5076505;28;20056;-80
2021/06/28 08:59:08;;;;;;;10.70;9.55;;;23.90;82.30;;;;;;5076376;28;20020;-80
2021/06/28 09:01:34;;;;;;;15.20;9.25;;;24.00;82.20;;;;;;5076329;28;20090;-81
2021/06/28 09:04:02;;;;;;;11.60;8.65;;;24.20;79.90;;;;;;5074962;28;20389;-81
2021/06/28 09:06:29;;;;;;;10.35;8.82;;;24.40;77.70;;;;;;5075625;28;20035;-81
2021/06/28 09:09:06;;;;;;;9.38;8.40;;;24.60;77.20;;;;;;5058446;28;20071;-81
2021/06/28 09:11:41;;;;;;;9.60;8.45;;;24.80;75.80;;;;;;5075460;28;20431;-81
2021/06/28 09:14:09;;;;;;;8.75;7.35;;;24.90;76.20;;;;;;5058701;28;20033;-81
2021/06/28 09:16:36;;;;;;;9.00;8.17;;;24.90;75.50;;;;;;5075828;28;20395;-81
2021/06/28 09:19:15;;;;;;;9.65;7.85;;;24.90;74.60;;;;;;5071877;28;20259;-81
2021/06/28 09:21:55;;;;;;;11.10;8.05;;;24.90;74.60;;;;;;5055665;28;20032;-80
2021/06/28 09:24:37;;;;;;;9.88;7.53;;;24.80;76.90;;;;;;5054555;28;20039;-80
2021/06/28 09:27:12;;;;;;;10.68;8.10;;;24.80;75.30;;;;;;5053862;28;20025;-81
2021/06/28 09:29:42;;;;;;;12.35;9.05;;;24.70;76.30;;;;;;5083149;28;20106;-81
2021/06/28 09:32:08;;;;;;;10.15;8.60;;;24.70;75.40;;;;;;5063387;28;20051;-80
2021/06/28 09:34:34;;;;;;;10.45;8.57;;;24.60;75.30;;;;;;5095503;28;20004;-80
2021/06/28 09:37:00;;;;;;;10.20;9.10;;;24.60;75.80;;;;;;5094226;28;20130;-80
2021/06/28 09:39:30;;;;;;;10.85;9.68;;;24.70;75.60;;;;;;5094302;28;20149;-80
2021/06/28 09:42:17;;;;;;;14.75;9.75;;;24.70;76.40;;;;;;5061450;28;20037;-80
2021/06/28 09:44:54;;;;;;;10.18;8.95;;;24.80;74.80;;;;;;5082432;28;20031;-80
2021/06/28 09:47:22;;;;;;;12.52;10.70;;;24.80;75.00;;;;;;5063038;28;20087;-79
2021/06/28 09:50:14;;;;;;;13.48;10.98;;;24.80;74.70;;;;;;5064370;28;20103;-79
2021/06/28 09:52:46;;;;;;;10.70;8.48;;;24.90;74.90;;;;;;5074928;28;20028;-81
2021/06/28 09:55:23;;;;;;;11.43;10.23;;;24.80;75.00;;;;;;5075010;28;20017;-81
2021/06/28 09:58:05;;;;;;;12.77;10.95;;;24.80;76.20;;;;;;5074148;28;20115;-81
2021/06/28 10:00:37;;;;;;;13.23;9.82;;;24.80;75.50;;;;;;5075177;28;20052;-80
2021/06/28 10:03:04;;;;;;;11.82;10.63;;;24.80;76.70;;;;;;5074912;28;20050;-80
2021/06/28 10:05:36;;;;;;;13.60;10.25;;;24.80;77.50;;;;;;5071316;28;20478;-80
2021/06/28 10:08:01;;;;;;;17.80;11.98;;;24.70;77.00;;;;;;5074777;28;20045;-80
2021/06/28 10:10:29;;;;;;;11.90;10.05;;;24.80;76.50;;;;;;5073728;28;20027;-80
2021/06/28 10:13:01;;;;;;;11.37;10.13;;;24.80;77.80;;;;;;5073854;28;20035;-80
2021/06/28 10:15:39;;;;;;;11.68;9.88;;;24.80;78.20;;;;;;5053724;28;20079;-80
2021/06/28 10:18:07;;;;;;;11.48;9.20;;;24.80;77.60;;;;;;5069763;28;20032;-79
2021/06/28 10:20:40;;;;;;;12.18;10.30;;;24.90;77.40;;;;;;5074552;28;20099;-79
2021/06/28 10:23:06;;;;;;;10.27;8.57;;;24.90;76.70;;;;;;5074551;28;20028;-79
2021/06/28 10:25:36;;;;;;;11.52;10.40;;;25.00;76.40;;;;;;5074443;28;20021;-79
2021/06/28 10:28:04;;;;;;;13.85;10.80;;;25.00;75.80;;;;;;5079983;28;20024;-79
2021/06/28 10:30:29;;;;;;;15.10;10.85;;;25.00;75.00;;;;;;5094815;28;20022;-80
2021/06/28 10:33:17;;;;;;;15.07;11.05;;;25.00;75.50;;;;;;5094831;28;20035;-80
2021/06/28 10:35:43;;;;;;;16.70;10.45;;;25.10;74.00;;;;;;5093607;28;20122;-80
2021/06/28 10:38:11;;;;;;;12.52;9.95;;;25.10;74.80;;;;;;5094780;28;20069;-79
2021/06/28 10:41:05;;;;;;;12.85;9.38;;;25.20;73.80;;;;;;5094113;28;20515;-79
2021/06/28 10:43:35;;;;;;;12.82;9.57;;;25.40;74.50;;;;;;5086822;28;20041;-80
2021/06/28 10:46:04;;;;;;;12.80;9.98;;;25.50;75.00;;;;;;5072025;28;20081;-80
2021/06/28 10:48:30;;;;;;;;;;;25.60;75.20;;;;;;5073287;28;20077;-80
2021/06/28 10:51:01;;;;;;;11.05;9.95;;;25.70;75.00;;;;;;5073950;28;19916;-80
2021/06/28 10:53:33;;;;;;;13.02;11.00;;;25.60;75.10;;;;;;5084769;28;20016;-80
2021/06/28 10:55:59;;;;;;;12.25;11.05;;;25.60;75.10;;;;;;5073847;28;20066;-80
2021/06/28 10:58:29;;;;;;;12.27;11.07;;;25.60;75.20;;;;;;5073864;28;20025;-80
2021/06/28 11:01:06;;;;;;;11.27;9.55;;;25.40;76.40;;;;;;5074035;28;20032;-80
2021/06/28 11:03:33;;;;;;;13.73;10.00;;;25.40;78.10;;;;;;5072644;28;20031;-80
2021/06/28 11:06:21;;;;;;;10.38;9.35;;;25.30;78.00;;;;;;5073979;28;20020;-80
2021/06/28 11:09:07;;;;;;;11.57;10.27;;;25.20;78.20;;;;;;5086759;28;20024;-79
2021/06/28 11:11:45;;;;;;;13.43;11.07;;;25.10;79.40;;;;;;5092690;28;20049;-80
2021/06/28 11:14:20;;;;;;;12.02;10.55;;;25.00;80.30;;;;;;5094406;28;20019;-80
2021/06/28 11:17:16;;;;;;;15.63;11.55;;;25.10;79.70;;;;;;5092836;28;20419;-80
2021/06/28 11:22:41;;;;;;;14.50;11.75;;;25.00;79.50;;;;;;5093648;28;20047;-80
2021/06/28 11:25:11;;;;;;;15.63;12.15;;;25.00;79.50;;;;;;5092790;28;20124;-80
2021/06/28 11:27:56;;;;;;;12.38;11.07;;;25.00;80.40;;;;;;5093621;28;20052;-80
2021/06/28 11:30:24;;;;;;;12.75;11.43;;;25.30;80.30;;;;;;5093933;28;20020;-80
2021/06/28 11:33:00;;;;;;;17.27;14.23;;;25.40;79.60;;;;;;5093848;28;20023;-80
2021/06/28 11:35:35;;;;;;;20.67;17.85;;;25.50;79.10;;;;;;5093882;28;20265;-80
2021/06/28 11:38:26;;;;;;;20.13;16.80;;;25.60;77.70;;;;;;5093816;28;20028;-80
2021/06/28 11:40:59;;;;;;;22.10;18.08;;;25.60;78.10;;;;;;5093730;28;20532;-79
2021/06/28 11:43:43;;;;;;;21.05;15.80;;;25.50;78.00;;;;;;5092319;28;20027;-80
2021/06/28 11:46:18;;;;;;;17.67;15.77;;;25.40;78.10;;;;;;5092435;28;20032;-80
2021/06/28 11:48:49;;;;;;;20.52;16.67;;;25.30;79.50;;;;;;5071385;28;20400;-80
2021/06/28 11:51:23;;;;;;;20.67;17.08;;;25.10;79.40;;;;;;5072430;28;20174;-80
2021/06/28 11:54:03;;;;;;;20.77;16.98;;;25.00;80.40;;;;;;5067762;28;20028;-79
2021/06/28 11:56:39;;;;;;;24.73;18.98;;;24.90;81.00;;;;;;5067303;28;20021;-81
2021/06/28 11:59:16;;;;;;;21.17;17.35;;;24.70;81.50;;;;;;5067384;28;20056;-80
2021/06/28 12:01:47;;;;;;;28.77;20.70;;;24.50;82.20;;;;;;5066793;28;20490;-80
2021/06/28 12:04:18;;;;;;;31.40;21.08;;;24.40;82.70;;;;;;5072356;28;20021;-81
2021/06/28 12:06:45;;;;;;;36.40;26.25;;;24.30;83.70;;;;;;5058292;28;20025;-81
2021/06/28 12:09:12;;;;;;;37.60;26.50;;;24.10;84.10;;;;;;5065073;28;20039;-79
2021/06/28 12:12:01;;;;;;;31.85;24.10;;;24.00;85.10;;;;;;5063420;28;20485;-81
2021/06/28 12:14:39;;;;;;;43.67;28.88;;;23.90;85.60;;;;;;5068937;28;20083;-82
2021/06/28 12:17:18;;;;;;;39.33;27.92;;;23.70;86.10;;;;;;5056245;28;20033;-82
2021/06/28 12:19:58;;;;;;;27.25;21.23;;;23.60;87.10;;;;;;5052990;28;20033;-81
2021/06/28 12:22:30;;;;;;;22.73;17.83;;;23.50;87.70;;;;;;5056691;28;20024;-81
2021/06/28 12:24:59;;;;;;;15.85;13.50;;;23.30;87.40;;;;;;5072686;28;20036;-82
2021/06/28 12:27:28;;;;;;;13.30;10.50;;;23.30;87.20;;;;;;5071598;28;20079;-81
2021/06/28 12:29:55;;;;;;;13.95;11.23;;;23.30;87.20;;;;;;5071717;28;20568;-81
2021/06/28 12:32:26;;;;;;;13.68;9.82;;;23.40;87.40;;;;;;5071280;28;20025;-80
2021/06/28 12:35:06;;;;;;;11.75;10.00;;;23.70;87.70;;;;;;5052799;28;20024;-80
2021/06/28 12:37:40;;;;;;;9.30;7.97;;;24.20;87.80;;;;;;5052698;28;20032;-80
2021/06/28 12:40:32;;;;;;;9.43;8.52;;;24.60;85.80;;;;;;5084998;28;20114;-79
2021/06/28 12:42:59;;;;;;;10.80;9.77;;;24.90;84.70;;;;;;5084478;28;20420;-79